Terminal Aerodrome Forecast
Issued by NWS Pittsburgh, PA

Home | Current Version | Previous Version | Text Only | Print | Product List | Glossary On
Versions: 1 2 3 4 5 6 7 8 9 10 11 12 13 14 15 16 17 18 19 20 21 22 23 24 25 26 27 28 29
701
FTUS41 KPBZ 271525 AAA
TAFPIT
TAF AMD
KPIT 271525Z 2715/2818 25008KT P6SM BKN025
     FM271600 22010G16KT P6SM SCT040
     FM280000 32003KT P6SM BKN050
     FM280900 18003KT 5SM -SHRA OVC035=

USA.gov is the U.S. government's official web portal to all federal, state and local government web resources and services.